sensor_id;sensor_type;location;lat;lon;timestamp;P1;durP1;ratioP1;P2;durP2;ratioP2
30020;SDS011;16861;52.294;7.760;2024-02-15T00:01:42;15.45;;;13.88;;
30020;SDS011;16861;52.294;7.760;2024-02-15T00:04:08;15.02;;;13.43;;
30020;SDS011;16861;52.294;7.760;2024-02-15T00:06:37;16.40;;;14.43;;
30020;SDS011;16861;52.294;7.760;2024-02-15T00:09:04;18.15;;;13.63;;
30020;SDS011;16861;52.294;7.760;2024-02-15T00:11:30;16.55;;;13.38;;
30020;SDS011;16861;52.294;7.760;2024-02-15T00:13:58;17.88;;;14.20;;
30020;SDS011;16861;52.294;7.760;2024-02-15T00:16:26;17.63;;;13.45;;
30020;SDS011;16861;52.294;7.760;2024-02-15T00:18:53;18.95;;;13.95;;
30020;SDS011;16861;52.294;7.760;2024-02-15T00:21:21;16.58;;;14.88;;
30020;SDS011;16861;52.294;7.760;2024-02-15T00:23:49;17.05;;;14.25;;
30020;SDS011;16861;52.294;7.760;2024-02-15T00:26:15;15.60;;;13.77;;
30020;SDS011;16861;52.294;7.760;2024-02-15T00:28:42;15.77;;;13.45;;
30020;SDS011;16861;52.294;7.760;2024-02-15T00:31:09;15.25;;;13.18;;
30020;SDS011;16861;52.294;7.760;2024-02-15T00:33:36;15.70;;;13.75;;
30020;SDS011;16861;52.294;7.760;2024-02-15T00:36:04;15.95;;;13.57;;
30020;SDS011;16861;52.294;7.760;2024-02-15T00:38:34;15.50;;;13.00;;
30020;SDS011;16861;52.294;7.760;2024-02-15T00:41:01;18.42;;;13.57;;
30020;SDS011;16861;52.294;7.760;2024-02-15T00:43:29;13.38;;;11.98;;
30020;SDS011;16861;52.294;7.760;2024-02-15T00:45:56;15.40;;;12.32;;
30020;SDS011;16861;52.294;7.760;2024-02-15T00:48:23;14.50;;;12.30;;
30020;SDS011;16861;52.294;7.760;2024-02-15T00:50:52;13.30;;;11.90;;
30020;SDS011;16861;52.294;7.760;2024-02-15T00:53:18;14.48;;;12.57;;
30020;SDS011;16861;52.294;7.760;2024-02-15T00:55:45;13.65;;;11.73;;
30020;SDS011;16861;52.294;7.760;2024-02-15T00:58:11;15.68;;;12.88;;
30020;SDS011;16861;52.294;7.760;2024-02-15T01:00:38;16.15;;;12.18;;
30020;SDS011;16861;52.294;7.760;2024-02-15T01:03:05;13.90;;;12.50;;
30020;SDS011;16861;52.294;7.760;2024-02-15T01:05:31;14.13;;;12.02;;
30020;SDS011;16861;52.294;7.760;2024-02-15T01:07:58;16.40;;;11.90;;
30020;SDS011;16861;52.294;7.760;2024-02-15T01:10:24;14.20;;;11.55;;
30020;SDS011;16861;52.294;7.760;2024-02-15T01:12:53;14.60;;;12.25;;
30020;SDS011;16861;52.294;7.760;2024-02-15T01:15:19;13.68;;;11.85;;
30020;SDS011;16861;52.294;7.760;2024-02-15T01:17:47;15.43;;;12.30;;
30020;SDS011;16861;52.294;7.760;2024-02-15T01:20:13;18.90;;;14.07;;
30020;SDS011;16861;52.294;7.760;2024-02-15T01:22:40;15.18;;;12.25;;
30020;SDS011;16861;52.294;7.760;2024-02-15T01:25:07;13.75;;;12.00;;
30020;SDS011;16861;52.294;7.760;2024-02-15T01:27:34;13.90;;;12.23;;
30020;SDS011;16861;52.294;7.760;2024-02-15T01:30:02;16.30;;;13.18;;
30020;SDS011;16861;52.294;7.760;2024-02-15T01:32:30;13.88;;;12.48;;
30020;SDS011;16861;52.294;7.760;2024-02-15T01:34:57;15.60;;;12.85;;
30020;SDS011;16861;52.294;7.760;2024-02-15T01:37:24;15.10;;;13.27;;
30020;SDS011;16861;52.294;7.760;2024-02-15T01:39:51;13.93;;;12.45;;
30020;SDS011;16861;52.294;7.760;2024-02-15T01:42:17;16.80;;;12.93;;
30020;SDS011;16861;52.294;7.760;2024-02-15T01:44:45;14.95;;;12.90;;
30020;SDS011;16861;52.294;7.760;2024-02-15T01:47:14;14.38;;;12.60;;
30020;SDS011;16861;52.294;7.760;2024-02-15T01:49:41;13.68;;;12.18;;
30020;SDS011;16861;52.294;7.760;2024-02-15T01:52:08;12.80;;;11.50;;
30020;SDS011;16861;52.294;7.760;2024-02-15T01:54:35;12.38;;;11.10;;
30020;SDS011;16861;52.294;7.760;2024-02-15T01:57:04;13.93;;;12.10;;
30020;SDS011;16861;52.294;7.760;2024-02-15T01:59:32;12.95;;;10.77;;
30020;SDS011;16861;52.294;7.760;2024-02-15T02:01:59;10.60;;;9.50;;
30020;SDS011;16861;52.294;7.760;2024-02-15T02:04:28;9.98;;;8.95;;
30020;SDS011;16861;52.294;7.760;2024-02-15T02:06:55;11.32;;;9.73;;
30020;SDS011;16861;52.294;7.760;2024-02-15T02:09:25;12.07;;;10.80;;
30020;SDS011;16861;52.294;7.760;2024-02-15T02:11:52;12.32;;;10.90;;
30020;SDS011;16861;52.294;7.760;2024-02-15T02:14:19;12.68;;;11.38;;
30020;SDS011;16861;52.294;7.760;2024-02-15T02:16:46;12.50;;;11.18;;
30020;SDS011;16861;52.294;7.760;2024-02-15T02:19:13;14.23;;;11.25;;
30020;SDS011;16861;52.294;7.760;2024-02-15T02:21:40;10.95;;;9.85;;
30020;SDS011;16861;52.294;7.760;2024-02-15T02:24:10;11.45;;;10.27;;
30020;SDS011;16861;52.294;7.760;2024-02-15T02:26:40;12.57;;;9.25;;
30020;SDS011;16861;52.294;7.760;2024-02-15T02:29:07;10.43;;;9.38;;
30020;SDS011;16861;52.294;7.760;2024-02-15T02:31:34;10.80;;;9.32;;
30020;SDS011;16861;52.294;7.760;2024-02-15T02:34:01;10.73;;;9.63;;
30020;SDS011;16861;52.294;7.760;2024-02-15T02:36:30;11.38;;;10.18;;
30020;SDS011;16861;52.294;7.760;2024-02-15T02:38:56;11.80;;;9.90;;
30020;SDS011;16861;52.294;7.760;2024-02-15T02:41:27;12.60;;;10.93;;
30020;SDS011;16861;52.294;7.760;2024-02-15T02:43:58;12.63;;;10.13;;
30020;SDS011;16861;52.294;7.760;2024-02-15T02:46:25;13.40;;;11.93;;
30020;SDS011;16861;52.294;7.760;2024-02-15T02:48:51;15.73;;;12.55;;
30020;SDS011;16861;52.294;7.760;2024-02-15T02:51:18;14.20;;;12.20;;
30020;SDS011;16861;52.294;7.760;2024-02-15T02:53:45;16.17;;;12.75;;
30020;SDS011;16861;52.294;7.760;2024-02-15T02:56:12;19.15;;;13.75;;
30020;SDS011;16861;52.294;7.760;2024-02-15T02:58:39;16.52;;;14.15;;
30020;SDS011;16861;52.294;7.760;2024-02-15T03:01:09;16.52;;;14.32;;
30020;SDS011;16861;52.294;7.760;2024-02-15T03:03:39;17.33;;;13.10;;
30020;SDS011;16861;52.294;7.760;2024-02-15T03:06:06;21.20;;;14.73;;
30020;SDS011;16861;52.294;7.760;2024-02-15T03:08:33;15.63;;;14.02;;
30020;SDS011;16861;52.294;7.760;2024-02-15T03:11:00;20.08;;;15.63;;
30020;SDS011;16861;52.294;7.760;2024-02-15T03:13:27;21.60;;;15.18;;
30020;SDS011;16861;52.294;7.760;2024-02-15T03:15:53;17.55;;;15.75;;
30020;SDS011;16861;52.294;7.760;2024-02-15T03:18:20;21.48;;;15.80;;
30020;SDS011;16861;52.294;7.760;2024-02-15T03:20:47;19.25;;;15.02;;
30020;SDS011;16861;52.294;7.760;2024-02-15T03:23:14;21.63;;;15.70;;
30020;SDS011;16861;52.294;7.760;2024-02-15T03:25:41;18.42;;;16.02;;
30020;SDS011;16861;52.294;7.760;2024-02-15T03:28:08;20.65;;;16.88;;
30020;SDS011;16861;52.294;7.760;2024-02-15T03:30:34;23.00;;;17.67;;
30020;SDS011;16861;52.294;7.760;2024-02-15T03:33:01;26.88;;;19.10;;
30020;SDS011;16861;52.294;7.760;2024-02-15T03:35:32;23.10;;;17.25;;
30020;SDS011;16861;52.294;7.760;2024-02-15T03:37:59;21.15;;;17.48;;
30020;SDS011;16861;52.294;7.760;2024-02-15T03:40:27;23.50;;;19.00;;
30020;SDS011;16861;52.294;7.760;2024-02-15T03:42:53;21.27;;;18.25;;
30020;SDS011;16861;52.294;7.760;2024-02-15T03:45:20;22.08;;;18.25;;
30020;SDS011;16861;52.294;7.760;2024-02-15T03:47:51;21.65;;;18.95;;
30020;SDS011;16861;52.294;7.760;2024-02-15T03:50:19;22.98;;;18.65;;
30020;SDS011;16861;52.294;7.760;2024-02-15T03:52:48;23.65;;;19.55;;
30020;SDS011;16861;52.294;7.760;2024-02-15T03:55:16;26.52;;;19.15;;
30020;SDS011;16861;52.294;7.760;2024-02-15T03:57:43;26.17;;;19.05;;
30020;SDS011;16861;52.294;7.760;2024-02-15T04:00:13;26.48;;;19.67;;
30020;SDS011;16861;52.294;7.760;2024-02-15T04:02:41;21.08;;;18.77;;
30020;SDS011;16861;52.294;7.760;2024-02-15T04:05:09;28.20;;;20.85;;
30020;SDS011;16861;52.294;7.760;2024-02-15T04:07:37;29.13;;;21.10;;
30020;SDS011;16861;52.294;7.760;2024-02-15T04:10:04;27.50;;;21.27;;
30020;SDS011;16861;52.294;7.760;2024-02-15T04:12:32;25.77;;;20.55;;
30020;SDS011;16861;52.294;7.760;2024-02-15T04:14:59;32.90;;;21.73;;
30020;SDS011;16861;52.294;7.760;2024-02-15T04:17:38;29.20;;;22.45;;
30020;SDS011;16861;52.294;7.760;2024-02-15T04:20:05;28.23;;;22.23;;
30020;SDS011;16861;52.294;7.760;2024-02-15T04:22:32;31.48;;;21.45;;
30020;SDS011;16861;52.294;7.760;2024-02-15T04:25:05;26.77;;;21.48;;
30020;SDS011;16861;52.294;7.760;2024-02-15T04:27:32;25.30;;;20.85;;
30020;SDS011;16861;52.294;7.760;2024-02-15T04:30:00;27.85;;;21.55;;
30020;SDS011;16861;52.294;7.760;2024-02-15T04:32:29;24.33;;;21.30;;
30020;SDS011;16861;52.294;7.760;2024-02-15T04:35:00;34.55;;;23.25;;
30020;SDS011;16861;52.294;7.760;2024-02-15T04:37:28;27.58;;;22.45;;
30020;SDS011;16861;52.294;7.760;2024-02-15T04:39:58;32.95;;;23.42;;
30020;SDS011;16861;52.294;7.760;2024-02-15T04:42:32;34.95;;;23.42;;
30020;SDS011;16861;52.294;7.760;2024-02-15T04:45:00;33.35;;;23.73;;
30020;SDS011;16861;52.294;7.760;2024-02-15T04:47:27;29.48;;;23.30;;
30020;SDS011;16861;52.294;7.760;2024-02-15T04:49:56;31.48;;;22.17;;
30020;SDS011;16861;52.294;7.760;2024-02-15T04:52:23;29.55;;;21.95;;
30020;SDS011;16861;52.294;7.760;2024-02-15T04:54:50;28.40;;;22.77;;
30020;SDS011;16861;52.294;7.760;2024-02-15T04:57:17;28.98;;;21.20;;
30020;SDS011;16861;52.294;7.760;2024-02-15T04:59:44;28.45;;;21.92;;
30020;SDS011;16861;52.294;7.760;2024-02-15T05:02:13;27.17;;;21.08;;
30020;SDS011;16861;52.294;7.760;2024-02-15T05:04:40;28.48;;;21.23;;
30020;SDS011;16861;52.294;7.760;2024-02-15T05:07:09;29.88;;;21.52;;
30020;SDS011;16861;52.294;7.760;2024-02-15T05:09:37;31.30;;;20.23;;
30020;SDS011;16861;52.294;7.760;2024-02-15T05:12:03;29.52;;;20.60;;
30020;SDS011;16861;52.294;7.760;2024-02-15T05:14:31;30.33;;;20.60;;
30020;SDS011;16861;52.294;7.760;2024-02-15T05:16:59;31.45;;;20.10;;
30020;SDS011;16861;52.294;7.760;2024-02-15T05:19:25;32.85;;;22.10;;
30020;SDS011;16861;52.294;7.760;2024-02-15T05:21:53;34.72;;;22.60;;
30020;SDS011;16861;52.294;7.760;2024-02-15T05:24:21;36.33;;;23.50;;
30020;SDS011;16861;52.294;7.760;2024-02-15T05:26:48;36.28;;;26.55;;
30020;SDS011;16861;52.294;7.760;2024-02-15T05:29:15;34.92;;;25.67;;
30020;SDS011;16861;52.294;7.760;2024-02-15T05:31:43;41.10;;;28.08;;
30020;SDS011;16861;52.294;7.760;2024-02-15T05:34:10;42.22;;;31.40;;
30020;SDS011;16861;52.294;7.760;2024-02-15T05:36:40;49.85;;;32.22;;
30020;SDS011;16861;52.294;7.760;2024-02-15T05:39:07;47.45;;;34.38;;
30020;SDS011;16861;52.294;7.760;2024-02-15T05:41:34;53.58;;;33.95;;
30020;SDS011;16861;52.294;7.760;2024-02-15T05:44:01;53.70;;;35.80;;
30020;SDS011;16861;52.294;7.760;2024-02-15T05:46:31;49.90;;;36.70;;
30020;SDS011;16861;52.294;7.760;2024-02-15T05:48:57;56.90;;;38.40;;
30020;SDS011;16861;52.294;7.760;2024-02-15T05:51:25;53.53;;;39.47;;
30020;SDS011;16861;52.294;7.760;2024-02-15T05:53:53;54.55;;;37.35;;
30020;SDS011;16861;52.294;7.760;2024-02-15T05:56:25;52.17;;;37.40;;
30020;SDS011;16861;52.294;7.760;2024-02-15T05:58:52;53.03;;;36.78;;
30020;SDS011;16861;52.294;7.760;2024-02-15T06:01:19;60.70;;;38.55;;
30020;SDS011;16861;52.294;7.760;2024-02-15T06:03:45;56.08;;;36.65;;
30020;SDS011;16861;52.294;7.760;2024-02-15T06:06:14;59.97;;;37.88;;
30020;SDS011;16861;52.294;7.760;2024-02-15T06:08:41;52.17;;;36.53;;
30020;SDS011;16861;52.294;7.760;2024-02-15T06:11:08;53.58;;;36.10;;
30020;SDS011;16861;52.294;7.760;2024-02-15T06:13:36;57.47;;;38.17;;
30020;SDS011;16861;52.294;7.760;2024-02-15T06:16:03;60.50;;;37.72;;
30020;SDS011;16861;52.294;7.760;2024-02-15T06:18:35;54.63;;;36.40;;
30020;SDS011;16861;52.294;7.760;2024-02-15T06:21:02;45.92;;;33.40;;
30020;SDS011;16861;52.294;7.760;2024-02-15T06:23:29;48.05;;;35.13;;
30020;SDS011;16861;52.294;7.760;2024-02-15T06:25:56;48.58;;;33.20;;
30020;SDS011;16861;52.294;7.760;2024-02-15T06:28:24;51.50;;;33.05;;
30020;SDS011;16861;52.294;7.760;2024-02-15T06:31:10;49.45;;;32.75;;
30020;SDS011;16861;52.294;7.760;2024-02-15T06:33:56;49.88;;;30.70;;
30020;SDS011;16861;52.294;7.760;2024-02-15T06:36:54;40.25;;;28.38;;
30020;SDS011;16861;52.294;7.760;2024-02-15T06:39:40;39.15;;;27.45;;
30020;SDS011;16861;52.294;7.760;2024-02-15T06:42:09;45.95;;;26.50;;
30020;SDS011;16861;52.294;7.760;2024-02-15T06:44:37;41.40;;;26.17;;
30020;SDS011;16861;52.294;7.760;2024-02-15T06:47:07;35.85;;;24.63;;
30020;SDS011;16861;52.294;7.760;2024-02-15T06:49:37;38.00;;;24.90;;
30020;SDS011;16861;52.294;7.760;2024-02-15T06:52:08;35.67;;;24.48;;
30020;SDS011;16861;52.294;7.760;2024-02-15T06:54:35;33.03;;;23.33;;
30020;SDS011;16861;52.294;7.760;2024-02-15T06:57:02;37.42;;;24.13;;
30020;SDS011;16861;52.294;7.760;2024-02-15T06:59:30;34.17;;;22.00;;
30020;SDS011;16861;52.294;7.760;2024-02-15T07:01:58;32.30;;;22.55;;
30020;SDS011;16861;52.294;7.760;2024-02-15T07:04:25;36.70;;;20.33;;
30020;SDS011;16861;52.294;7.760;2024-02-15T07:06:52;26.83;;;20.13;;
30020;SDS011;16861;52.294;7.760;2024-02-15T07:09:20;34.38;;;21.08;;
30020;SDS011;16861;52.294;7.760;2024-02-15T07:11:53;29.60;;;20.25;;
30020;SDS011;16861;52.294;7.760;2024-02-15T07:14:19;28.55;;;19.63;;
30020;SDS011;16861;52.294;7.760;2024-02-15T07:16:47;35.53;;;21.15;;
30020;SDS011;16861;52.294;7.760;2024-02-15T07:19:15;24.88;;;17.35;;
30020;SDS011;16861;52.294;7.760;2024-02-15T07:21:43;28.58;;;16.60;;
30020;SDS011;16861;52.294;7.760;2024-02-15T07:24:10;25.20;;;16.05;;
30020;SDS011;16861;52.294;7.760;2024-02-15T07:26:37;30.15;;;15.55;;
30020;SDS011;16861;52.294;7.760;2024-02-15T07:29:03;22.30;;;14.45;;
30020;SDS011;16861;52.294;7.760;2024-02-15T07:31:34;24.02;;;14.10;;
30020;SDS011;16861;52.294;7.760;2024-02-15T07:34:01;26.90;;;15.23;;
30020;SDS011;16861;52.294;7.760;2024-02-15T07:36:30;21.23;;;14.45;;
30020;SDS011;16861;52.294;7.760;2024-02-15T07:38:56;21.35;;;14.35;;
30020;SDS011;16861;52.294;7.760;2024-02-15T07:41:27;22.27;;;14.38;;
30020;SDS011;16861;52.294;7.760;2024-02-15T07:43:54;24.10;;;12.82;;
30020;SDS011;16861;52.294;7.760;2024-02-15T07:46:21;20.23;;;12.65;;
30020;SDS011;16861;52.294;7.760;2024-02-15T07:48:48;20.95;;;12.55;;
30020;SDS011;16861;52.294;7.760;2024-02-15T07:51:16;22.58;;;13.55;;
30020;SDS011;16861;52.294;7.760;2024-02-15T07:53:44;22.80;;;14.25;;
30020;SDS011;16861;52.294;7.760;2024-02-15T07:56:12;17.63;;;12.25;;
30020;SDS011;16861;52.294;7.760;2024-02-15T07:58:43;18.90;;;13.32;;
30020;SDS011;16861;52.294;7.760;2024-02-15T08:01:19;19.40;;;12.57;;
30020;SDS011;16861;52.294;7.760;2024-02-15T08:03:51;24.52;;;12.90;;
30020;SDS011;16861;52.294;7.760;2024-02-15T08:06:21;18.67;;;12.07;;
30020;SDS011;16861;52.294;7.760;2024-02-15T08:08:50;24.52;;;12.48;;
30020;SDS011;16861;52.294;7.760;2024-02-15T08:11:18;17.17;;;12.48;;
30020;SDS011;16861;52.294;7.760;2024-02-15T08:13:45;19.33;;;12.82;;
30020;SDS011;16861;52.294;7.760;2024-02-15T08:16:22;17.63;;;11.95;;
30020;SDS011;16861;52.294;7.760;2024-02-15T08:18:49;15.57;;;11.13;;
30020;SDS011;16861;52.294;7.760;2024-02-15T08:21:27;22.50;;;12.10;;
30020;SDS011;16861;52.294;7.760;2024-02-15T08:23:55;20.92;;;12.10;;
30020;SDS011;16861;52.294;7.760;2024-02-15T08:26:22;19.15;;;12.02;;
30020;SDS011;16861;52.294;7.760;2024-02-15T08:28:49;19.58;;;12.25;;
30020;SDS011;16861;52.294;7.760;2024-02-15T08:31:15;17.38;;;11.63;;
30020;SDS011;16861;52.294;7.760;2024-02-15T08:33:42;15.45;;;11.15;;
30020;SDS011;16861;52.294;7.760;2024-02-15T08:36:12;14.73;;;10.43;;
30020;SDS011;16861;52.294;7.760;2024-02-15T08:38:42;18.77;;;10.70;;
30020;SDS011;16861;52.294;7.760;2024-02-15T08:41:11;15.70;;;9.73;;
30020;SDS011;16861;52.294;7.760;2024-02-15T08:43:38;23.98;;;9.85;;
30020;SDS011;16861;52.294;7.760;2024-02-15T08:46:08;17.67;;;9.80;;
30020;SDS011;16861;52.294;7.760;2024-02-15T08:48:34;12.43;;;7.93;;
30020;SDS011;16861;52.294;7.760;2024-02-15T08:51:01;14.70;;;8.50;;
30020;SDS011;16861;52.294;7.760;2024-02-15T08:53:29;19.63;;;8.50;;
30020;SDS011;16861;52.294;7.760;2024-02-15T08:55:55;12.43;;;7.82;;
30020;SDS011;16861;52.294;7.760;2024-02-15T08:58:22;16.67;;;8.15;;
30020;SDS011;16861;52.294;7.760;2024-02-15T09:00:49;16.27;;;7.25;;
30020;SDS011;16861;52.294;7.760;2024-02-15T09:03:15;12.57;;;7.35;;
30020;SDS011;16861;52.294;7.760;2024-02-15T09:05:42;14.02;;;6.47;;
30020;SDS011;16861;52.294;7.760;2024-02-15T09:08:09;14.30;;;7.22;;
30020;SDS011;16861;52.294;7.760;2024-02-15T09:10:36;12.00;;;6.35;;
30020;SDS011;16861;52.294;7.760;2024-02-15T09:13:02;10.40;;;5.85;;
30020;SDS011;16861;52.294;7.760;2024-02-15T09:15:29;14.55;;;6.18;;
30020;SDS011;16861;52.294;7.760;2024-02-15T09:17:57;14.98;;;6.18;;
30020;SDS011;16861;52.294;7.760;2024-02-15T09:20:24;11.52;;;5.60;;
30020;SDS011;16861;52.294;7.760;2024-02-15T09:22:54;11.10;;;5.97;;
30020;SDS011;16861;52.294;7.760;2024-02-15T09:25:23;13.88;;;5.63;;
30020;SDS011;16861;52.294;7.760;2024-02-15T09:27:50;11.75;;;5.85;;
30020;SDS011;16861;52.294;7.760;2024-02-15T09:30:17;9.48;;;5.85;;
30020;SDS011;16861;52.294;7.760;2024-02-15T09:32:44;15.77;;;6.20;;
30020;SDS011;16861;52.294;7.760;2024-02-15T09:35:12;10.13;;;5.50;;
30020;SDS011;16861;52.294;7.760;2024-02-15T09:37:46;10.77;;;5.50;;
30020;SDS011;16861;52.294;7.760;2024-02-15T09:40:18;12.93;;;5.45;;
30020;SDS011;16861;52.294;7.760;2024-02-15T09:42:46;8.40;;;4.90;;
30020;SDS011;16861;52.294;7.760;2024-02-15T09:45:13;10.55;;;5.13;;
30020;SDS011;16861;52.294;7.760;2024-02-15T09:47:44;8.60;;;5.28;;
30020;SDS011;16861;52.294;7.760;2024-02-15T09:50:12;9.50;;;5.90;;
30020;SDS011;16861;52.294;7.760;2024-02-15T09:52:43;11.48;;;5.82;;
30020;SDS011;16861;52.294;7.760;2024-02-15T09:55:11;13.60;;;5.50;;
30020;SDS011;16861;52.294;7.760;2024-02-15T09:57:42;11.38;;;5.18;;
30020;SDS011;16861;52.294;7.760;2024-02-15T10:00:10;12.77;;;5.85;;
30020;SDS011;16861;52.294;7.760;2024-02-15T10:02:43;11.35;;;6.38;;
30020;SDS011;16861;52.294;7.760;2024-02-15T10:05:12;12.32;;;6.00;;
30020;SDS011;16861;52.294;7.760;2024-02-15T10:07:39;8.60;;;5.60;;
30020;SDS011;16861;52.294;7.760;2024-02-15T10:10:22;12.73;;;5.95;;
30020;SDS011;16861;52.294;7.760;2024-02-15T10:12:54;10.00;;;5.88;;
30020;SDS011;16861;52.294;7.760;2024-02-15T10:15:35;10.85;;;5.95;;
30020;SDS011;16861;52.294;7.760;2024-02-15T10:18:07;9.40;;;5.85;;
30020;SDS011;16861;52.294;7.760;2024-02-15T10:20:37;8.38;;;5.60;;
30020;SDS011;16861;52.294;7.760;2024-02-15T10:23:10;10.23;;;5.97;;
30020;SDS011;16861;52.294;7.760;2024-02-15T10:25:38;10.40;;;5.93;;
30020;SDS011;16861;52.294;7.760;2024-02-15T10:28:07;10.60;;;5.88;;
30020;SDS011;16861;52.294;7.760;2024-02-15T10:30:35;13.52;;;5.55;;
30020;SDS011;16861;52.294;7.760;2024-02-15T10:33:06;12.98;;;6.63;;
30020;SDS011;16861;52.294;7.760;2024-02-15T10:35:35;8.93;;;5.65;;
30020;SDS011;16861;52.294;7.760;2024-02-15T10:38:06;10.40;;;6.18;;
30020;SDS011;16861;52.294;7.760;2024-02-15T10:40:34;8.65;;;6.35;;
30020;SDS011;16861;52.294;7.760;2024-02-15T10:43:04;11.80;;;6.03;;
30020;SDS011;16861;52.294;7.760;2024-02-15T10:45:35;8.68;;;5.75;;
30020;SDS011;16861;52.294;7.760;2024-02-15T10:48:09;10.00;;;5.80;;
30020;SDS011;16861;52.294;7.760;2024-02-15T10:50:39;9.88;;;5.57;;
30020;SDS011;16861;52.294;7.760;2024-02-15T10:53:11;6.85;;;5.13;;
30020;SDS011;16861;52.294;7.760;2024-02-15T10:58:44;9.57;;;4.93;;
30020;SDS011;16861;52.294;7.760;2024-02-15T11:01:15;6.63;;;4.07;;
30020;SDS011;16861;52.294;7.760;2024-02-15T11:03:52;6.68;;;3.70;;
30020;SDS011;16861;52.294;7.760;2024-02-15T11:06:26;4.65;;;3.80;;
30020;SDS011;16861;52.294;7.760;2024-02-15T11:08:53;5.07;;;3.67;;
30020;SDS011;16861;52.294;7.760;2024-02-15T11:11:21;6.22;;;3.78;;
30020;SDS011;16861;52.294;7.760;2024-02-15T11:13:48;5.97;;;3.83;;
30020;SDS011;16861;52.294;7.760;2024-02-15T11:19:10;6.03;;;3.45;;
30020;SDS011;16861;52.294;7.760;2024-02-15T11:21:52;5.95;;;3.45;;
30020;SDS011;16861;52.294;7.760;2024-02-15T11:24:27;6.95;;;3.30;;
30020;SDS011;16861;52.294;7.760;2024-02-15T11:27:03;10.45;;;3.92;;
30020;SDS011;16861;52.294;7.760;2024-02-15T11:35:08;6.93;;;4.03;;
30020;SDS011;16861;52.294;7.760;2024-02-15T11:42:51;8.57;;;3.97;;
30020;SDS011;16861;52.294;7.760;2024-02-15T11:45:19;10.35;;;3.55;;
30020;SDS011;16861;52.294;7.760;2024-02-15T11:47:48;10.57;;;3.30;;
30020;SDS011;16861;52.294;7.760;2024-02-15T11:50:17;7.63;;;2.97;;
30020;SDS011;16861;52.294;7.760;2024-02-15T11:52:50;8.75;;;3.25;;
30020;SDS011;16861;52.294;7.760;2024-02-15T11:55:18;7.43;;;3.28;;
30020;SDS011;16861;52.294;7.760;2024-02-15T11:57:59;5.80;;;2.90;;
30020;SDS011;16861;52.294;7.760;2024-02-15T12:00:37;5.15;;;3.20;;
30020;SDS011;16861;52.294;7.760;2024-02-15T12:03:23;4.75;;;2.45;;
30020;SDS011;16861;52.294;7.760;2024-02-15T12:06:25;4.82;;;3.00;;
30020;SDS011;16861;52.294;7.760;2024-02-15T12:09:12;5.65;;;2.90;;
30020;SDS011;16861;52.294;7.760;2024-02-15T12:12:03;7.80;;;2.78;;
30020;SDS011;16861;52.294;7.760;2024-02-15T12:14:49;8.05;;;2.78;;
30020;SDS011;16861;52.294;7.760;2024-02-15T12:17:34;6.13;;;2.88;;
30020;SDS011;16861;52.294;7.760;2024-02-15T12:20:19;7.65;;;3.70;;
30020;SDS011;16861;52.294;7.760;2024-02-15T12:22:51;6.07;;;3.15;;
30020;SDS011;16861;52.294;7.760;2024-02-15T12:25:19;7.47;;;3.03;;
30020;SDS011;16861;52.294;7.760;2024-02-15T12:27:58;9.07;;;3.90;;
30020;SDS011;16861;52.294;7.760;2024-02-15T12:30:26;9.70;;;3.92;;
30020;SDS011;16861;52.294;7.760;2024-02-15T12:33:12;6.43;;;3.35;;
30020;SDS011;16861;52.294;7.760;2024-02-15T12:35:41;9.53;;;3.53;;
30020;SDS011;16861;52.294;7.760;2024-02-15T12:38:09;7.30;;;3.72;;
30020;SDS011;16861;52.294;7.760;2024-02-15T12:40:41;6.47;;;3.25;;
30020;SDS011;16861;52.294;7.760;2024-02-15T12:43:12;5.57;;;3.50;;
30020;SDS011;16861;52.294;7.760;2024-02-15T12:45:39;8.48;;;3.55;;
30020;SDS011;16861;52.294;7.760;2024-02-15T12:48:10;5.03;;;3.17;;
30020;SDS011;16861;52.294;7.760;2024-02-15T12:50:37;9.32;;;3.83;;
30020;SDS011;16861;52.294;7.760;2024-02-15T12:53:04;8.75;;;3.05;;
30020;SDS011;16861;52.294;7.760;2024-02-15T12:55:35;9.18;;;3.72;;
30020;SDS011;16861;52.294;7.760;2024-02-15T12:58:04;8.50;;;3.80;;
30020;SDS011;16861;52.294;7.760;2024-02-15T13:00:35;9.30;;;3.83;;
30020;SDS011;16861;52.294;7.760;2024-02-15T13:03:06;6.75;;;3.30;;
30020;SDS011;16861;52.294;7.760;2024-02-15T13:05:38;5.53;;;3.33;;
30020;SDS011;16861;52.294;7.760;2024-02-15T13:08:09;7.43;;;3.83;;
30020;SDS011;16861;52.294;7.760;2024-02-15T13:10:44;9.70;;;3.55;;
30020;SDS011;16861;52.294;7.760;2024-02-15T13:13:11;8.50;;;3.17;;
30020;SDS011;16861;52.294;7.760;2024-02-15T13:15:38;7.30;;;3.10;;
30020;SDS011;16861;52.294;7.760;2024-02-15T13:18:05;6.63;;;3.25;;
30020;SDS011;16861;52.294;7.760;2024-02-15T13:20:37;6.72;;;3.60;;
30020;SDS011;16861;52.294;7.760;2024-02-15T13:23:08;7.13;;;3.15;;
30020;SDS011;16861;52.294;7.760;2024-02-15T13:25:41;7.88;;;3.38;;
30020;SDS011;16861;52.294;7.760;2024-02-15T13:28:11;8.02;;;3.80;;
30020;SDS011;16861;52.294;7.760;2024-02-15T13:30:40;8.48;;;3.40;;
30020;SDS011;16861;52.294;7.760;2024-02-15T13:33:08;10.07;;;3.97;;
30020;SDS011;16861;52.294;7.760;2024-02-15T13:35:35;8.00;;;3.47;;
30020;SDS011;16861;52.294;7.760;2024-02-15T13:38:03;10.40;;;4.18;;
30020;SDS011;16861;52.294;7.760;2024-02-15T13:40:29;7.03;;;3.33;;
30020;SDS011;16861;52.294;7.760;2024-02-15T13:42:58;7.45;;;3.80;;
30020;SDS011;16861;52.294;7.760;2024-02-15T13:45:30;11.40;;;3.30;;
30020;SDS011;16861;52.294;7.760;2024-02-15T13:48:03;8.80;;;4.00;;
30020;SDS011;16861;52.294;7.760;2024-02-15T13:50:34;5.90;;;3.45;;
30020;SDS011;16861;52.294;7.760;2024-02-15T13:53:01;7.30;;;3.75;;
30020;SDS011;16861;52.294;7.760;2024-02-15T13:55:29;9.02;;;3.58;;
30020;SDS011;16861;52.294;7.760;2024-02-15T13:57:56;10.02;;;3.65;;
30020;SDS011;16861;52.294;7.760;2024-02-15T14:00:24;6.63;;;3.45;;
30020;SDS011;16861;52.294;7.760;2024-02-15T14:03:01;7.13;;;3.88;;
30020;SDS011;16861;52.294;7.760;2024-02-15T14:05:29;11.98;;;3.70;;
30020;SDS011;16861;52.294;7.760;2024-02-15T14:07:58;5.68;;;3.70;;
30020;SDS011;16861;52.294;7.760;2024-02-15T14:10:27;7.72;;;3.25;;
30020;SDS011;16861;52.294;7.760;2024-02-15T14:12:55;8.35;;;3.45;;
30020;SDS011;16861;52.294;7.760;2024-02-15T14:15:26;9.35;;;3.40;;
30020;SDS011;16861;52.294;7.760;2024-02-15T14:17:53;8.25;;;3.40;;
30020;SDS011;16861;52.294;7.760;2024-02-15T14:20:22;8.07;;;2.95;;
30020;SDS011;16861;52.294;7.760;2024-02-15T14:22:50;7.85;;;3.85;;
30020;SDS011;16861;52.294;7.760;2024-02-15T14:25:23;9.85;;;3.47;;
30020;SDS011;16861;52.294;7.760;2024-02-15T14:27:57;5.88;;;3.08;;
30020;SDS011;16861;52.294;7.760;2024-02-15T14:30:25;8.82;;;3.38;;
30020;SDS011;16861;52.294;7.760;2024-02-15T14:33:10;6.47;;;3.15;;
30020;SDS011;16861;52.294;7.760;2024-02-15T14:35:45;6.82;;;3.72;;
30020;SDS011;16861;52.294;7.760;2024-02-15T14:38:13;8.20;;;3.30;;
30020;SDS011;16861;52.294;7.760;2024-02-15T14:40:40;8.68;;;3.65;;
30020;SDS011;16861;52.294;7.760;2024-02-15T14:43:14;11.63;;;3.35;;
30020;SDS011;16861;52.294;7.760;2024-02-15T14:45:45;8.95;;;3.00;;
30020;SDS011;16861;52.294;7.760;2024-02-15T14:48:12;10.82;;;3.22;;
30020;SDS011;16861;52.294;7.760;2024-02-15T14:50:40;7.15;;;3.33;;
30020;SDS011;16861;52.294;7.760;2024-02-15T14:53:08;6.65;;;3.22;;
30020;SDS011;16861;52.294;7.760;2024-02-15T14:55:35;6.70;;;3.00;;
30020;SDS011;16861;52.294;7.760;2024-02-15T14:58:06;7.60;;;2.90;;
30020;SDS011;16861;52.294;7.760;2024-02-15T15:00:39;7.32;;;3.33;;